sensor_id;sensor_type;location;lat;lon;timestamp;temperature;humidity
21316;DHT22;10817;55.820;13.030;2024-03-17T00:00:18;2.70;99.90
21316;DHT22;10817;55.820;13.030;2024-03-17T00:02:44;2.70;99.90
21316;DHT22;10817;55.820;13.030;2024-03-17T00:05:13;2.60;99.90
21316;DHT22;10817;55.820;13.030;2024-03-17T00:07:38;2.70;99.90
21316;DHT22;10817;55.820;13.030;2024-03-17T00:10:06;2.60;99.90
21316;DHT22;10817;55.820;13.030;2024-03-17T00:12:32;2.60;99.90
21316;DHT22;10817;55.820;13.030;2024-03-17T00:14:59;2.70;99.90
21316;DHT22;10817;55.820;13.030;2024-03-17T00:17:25;2.60;99.90
21316;DHT22;10817;55.820;13.030;2024-03-17T00:19:52;2.60;99.90
21316;DHT22;10817;55.820;13.030;2024-03-17T00:22:19;2.50;99.90
21316;DHT22;10817;55.820;13.030;2024-03-17T00:24:46;2.40;99.90
21316;DHT22;10817;55.820;13.030;2024-03-17T00:27:12;2.20;99.90
21316;DHT22;10817;55.820;13.030;2024-03-17T00:29:39;2.30;99.90
21316;DHT22;10817;55.820;13.030;2024-03-17T00:32:06;2.30;99.90
21316;DHT22;10817;55.820;13.030;2024-03-17T00:34:33;2.30;99.90
21316;DHT22;10817;55.820;13.030;2024-03-17T00:36:58;2.30;99.90
21316;DHT22;10817;55.820;13.030;2024-03-17T00:39:27;2.40;99.90
21316;DHT22;10817;55.820;13.030;2024-03-17T00:41:53;3.10;99.90
21316;DHT22;10817;55.820;13.030;2024-03-17T00:44:19;2.40;99.90
21316;DHT22;10817;55.820;13.030;2024-03-17T00:46:45;2.90;99.90
21316;DHT22;10817;55.820;13.030;2024-03-17T00:49:12;2.40;99.90
21316;DHT22;10817;55.820;13.030;2024-03-17T00:51:38;2.40;99.90
21316;DHT22;10817;55.820;13.030;2024-03-17T00:54:05;2.30;99.90
21316;DHT22;10817;55.820;13.030;2024-03-17T00:56:32;2.30;99.90
21316;DHT22;10817;55.820;13.030;2024-03-17T00:58:59;2.20;99.90
21316;DHT22;10817;55.820;13.030;2024-03-17T01:01:25;2.10;99.90
21316;DHT22;10817;55.820;13.030;2024-03-17T01:03:51;2.10;99.90
21316;DHT22;10817;55.820;13.030;2024-03-17T01:06:18;2.10;99.90
21316;DHT22;10817;55.820;13.030;2024-03-17T01:08:55;2.20;99.90
21316;DHT22;10817;55.820;13.030;2024-03-17T01:11:22;2.20;99.90
21316;DHT22;10817;55.820;13.030;2024-03-17T01:13:52;2.20;99.90
21316;DHT22;10817;55.820;13.030;2024-03-17T01:16:22;3.40;99.90
21316;DHT22;10817;55.820;13.030;2024-03-17T01:18:56;2.40;99.90
21316;DHT22;10817;55.820;13.030;2024-03-17T01:21:26;1.70;99.90
21316;DHT22;10817;55.820;13.030;2024-03-17T01:23:58;2.70;99.90
21316;DHT22;10817;55.820;13.030;2024-03-17T01:26:33;5.10;99.90
21316;DHT22;10817;55.820;13.030;2024-03-17T01:29:00;2.10;99.90
21316;DHT22;10817;55.820;13.030;2024-03-17T01:31:32;1.60;99.90
21316;DHT22;10817;55.820;13.030;2024-03-17T01:34:01;1.90;99.90
21316;DHT22;10817;55.820;13.030;2024-03-17T01:36:30;4.60;99.90
21316;DHT22;10817;55.820;13.030;2024-03-17T01:39:00;1.50;99.90
21316;DHT22;10817;55.820;13.030;2024-03-17T01:41:27;1.60;99.90
21316;DHT22;10817;55.820;13.030;2024-03-17T01:43:53;1.60;99.90
21316;DHT22;10817;55.820;13.030;2024-03-17T01:46:21;1.60;99.90
21316;DHT22;10817;55.820;13.030;2024-03-17T01:48:47;1.60;99.90
21316;DHT22;10817;55.820;13.030;2024-03-17T01:51:15;1.50;99.90
21316;DHT22;10817;55.820;13.030;2024-03-17T01:53:42;1.50;99.90
21316;DHT22;10817;55.820;13.030;2024-03-17T01:56:10;1.40;99.90
21316;DHT22;10817;55.820;13.030;2024-03-17T01:58:37;1.40;99.90
21316;DHT22;10817;55.820;13.030;2024-03-17T02:01:04;1.30;99.90
21316;DHT22;10817;55.820;13.030;2024-03-17T02:03:31;1.30;99.90
21316;DHT22;10817;55.820;13.030;2024-03-17T02:05:58;1.20;99.90
21316;DHT22;10817;55.820;13.030;2024-03-17T02:08:24;1.20;99.90
21316;DHT22;10817;55.820;13.030;2024-03-17T02:10:53;1.10;99.90
21316;DHT22;10817;55.820;13.030;2024-03-17T02:13:19;1.00;99.90
21316;DHT22;10817;55.820;13.030;2024-03-17T02:15:46;0.90;99.90
21316;DHT22;10817;55.820;13.030;2024-03-17T02:18:12;0.80;99.90
21316;DHT22;10817;55.820;13.030;2024-03-17T02:20:40;0.70;99.90
21316;DHT22;10817;55.820;13.030;2024-03-17T02:23:26;0.70;99.90
21316;DHT22;10817;55.820;13.030;2024-03-17T02:25:52;0.60;99.90
21316;DHT22;10817;55.820;13.030;2024-03-17T02:28:18;0.50;99.90
21316;DHT22;10817;55.820;13.030;2024-03-17T02:30:45;0.50;99.90
21316;DHT22;10817;55.820;13.030;2024-03-17T02:33:11;0.50;99.90
21316;DHT22;10817;55.820;13.030;2024-03-17T02:35:38;0.40;99.90
21316;DHT22;10817;55.820;13.030;2024-03-17T02:38:04;0.40;99.90
21316;DHT22;10817;55.820;13.030;2024-03-17T02:40:32;0.40;99.90
21316;DHT22;10817;55.820;13.030;2024-03-17T02:42:59;0.40;99.90
21316;DHT22;10817;55.820;13.030;2024-03-17T02:45:26;0.30;99.90
21316;DHT22;10817;55.820;13.030;2024-03-17T02:47:53;0.20;99.90
21316;DHT22;10817;55.820;13.030;2024-03-17T02:50:20;0.20;99.90
21316;DHT22;10817;55.820;13.030;2024-03-17T02:52:47;0.20;99.90
21316;DHT22;10817;55.820;13.030;2024-03-17T02:55:14;0.30;99.90
21316;DHT22;10817;55.820;13.030;2024-03-17T02:57:44;0.30;99.90
21316;DHT22;10817;55.820;13.030;2024-03-17T03:00:11;0.30;99.90
21316;DHT22;10817;55.820;13.030;2024-03-17T03:02:38;0.30;99.90
21316;DHT22;10817;55.820;13.030;2024-03-17T03:05:06;0.20;99.90
21316;DHT22;10817;55.820;13.030;2024-03-17T03:07:33;0.20;99.90
21316;DHT22;10817;55.820;13.030;2024-03-17T03:10:00;0.20;99.90
21316;DHT22;10817;55.820;13.030;2024-03-17T03:12:27;0.20;99.90
21316;DHT22;10817;55.820;13.030;2024-03-17T03:14:55;0.20;99.90
21316;DHT22;10817;55.820;13.030;2024-03-17T03:17:22;0.10;99.90
21316;DHT22;10817;55.820;13.030;2024-03-17T03:19:49;0.00;99.90
21316;DHT22;10817;55.820;13.030;2024-03-17T03:22:16;0.00;99.90
21316;DHT22;10817;55.820;13.030;2024-03-17T03:24:43;-0.10;99.90
21316;DHT22;10817;55.820;13.030;2024-03-17T03:27:10;-0.10;99.90
21316;DHT22;10817;55.820;13.030;2024-03-17T03:29:36;-0.10;99.90
21316;DHT22;10817;55.820;13.030;2024-03-17T03:32:05;-0.20;99.90
21316;DHT22;10817;55.820;13.030;2024-03-17T03:34:33;-0.10;99.90
21316;DHT22;10817;55.820;13.030;2024-03-17T03:36:59;0.00;99.90
21316;DHT22;10817;55.820;13.030;2024-03-17T03:39:26;0.10;99.90
21316;DHT22;10817;55.820;13.030;2024-03-17T03:41:57;0.20;99.90
21316;DHT22;10817;55.820;13.030;2024-03-17T03:44:23;0.60;99.90
21316;DHT22;10817;55.820;13.030;2024-03-17T03:46:50;0.30;99.90
21316;DHT22;10817;55.820;13.030;2024-03-17T03:49:20;0.50;99.90
21316;DHT22;10817;55.820;13.030;2024-03-17T03:51:46;0.60;99.90
21316;DHT22;10817;55.820;13.030;2024-03-17T03:54:14;0.60;99.90
21316;DHT22;10817;55.820;13.030;2024-03-17T03:56:41;0.60;99.90
21316;DHT22;10817;55.820;13.030;2024-03-17T03:59:07;0.60;99.90
21316;DHT22;10817;55.820;13.030;2024-03-17T04:01:34;0.60;99.90
21316;DHT22;10817;55.820;13.030;2024-03-17T04:04:01;0.60;99.90
21316;DHT22;10817;55.820;13.030;2024-03-17T04:06:30;0.50;99.90
21316;DHT22;10817;55.820;13.030;2024-03-17T04:08:57;0.60;99.90
21316;DHT22;10817;55.820;13.030;2024-03-17T04:11:23;1.30;99.90
21316;DHT22;10817;55.820;13.030;2024-03-17T04:13:51;0.50;99.90
21316;DHT22;10817;55.820;13.030;2024-03-17T04:16:18;0.40;99.90
21316;DHT22;10817;55.820;13.030;2024-03-17T04:18:45;0.40;99.90
21316;DHT22;10817;55.820;13.030;2024-03-17T04:21:11;0.40;99.90
21316;DHT22;10817;55.820;13.030;2024-03-17T04:23:39;0.50;99.90
21316;DHT22;10817;55.820;13.030;2024-03-17T04:26:07;0.60;99.90
21316;DHT22;10817;55.820;13.030;2024-03-17T04:28:35;0.80;99.90
21316;DHT22;10817;55.820;13.030;2024-03-17T04:31:05;1.10;99.90
21316;DHT22;10817;55.820;13.030;2024-03-17T04:33:32;0.90;99.90
21316;DHT22;10817;55.820;13.030;2024-03-17T04:36:00;1.00;99.90
21316;DHT22;10817;55.820;13.030;2024-03-17T04:38:27;1.10;99.90
21316;DHT22;10817;55.820;13.030;2024-03-17T04:40:55;1.20;99.90
21316;DHT22;10817;55.820;13.030;2024-03-17T04:43:30;1.30;99.90
21316;DHT22;10817;55.820;13.030;2024-03-17T04:46:04;1.30;99.90
21316;DHT22;10817;55.820;13.030;2024-03-17T04:48:33;1.30;99.90
21316;DHT22;10817;55.820;13.030;2024-03-17T04:51:00;1.30;99.90
21316;DHT22;10817;55.820;13.030;2024-03-17T04:53:27;1.30;99.90
21316;DHT22;10817;55.820;13.030;2024-03-17T04:56:03;1.20;99.90
21316;DHT22;10817;55.820;13.030;2024-03-17T04:58:30;1.30;99.90
21316;DHT22;10817;55.820;13.030;2024-03-17T05:00:57;1.30;99.90
21316;DHT22;10817;55.820;13.030;2024-03-17T05:03:24;1.30;99.90
21316;DHT22;10817;55.820;13.030;2024-03-17T05:05:58;1.30;99.90
21316;DHT22;10817;55.820;13.030;2024-03-17T05:08:27;1.30;99.90
21316;DHT22;10817;55.820;13.030;2024-03-17T05:10:56;1.30;99.90
21316;DHT22;10817;55.820;13.030;2024-03-17T05:13:25;1.30;99.90
21316;DHT22;10817;55.820;13.030;2024-03-17T05:15:51;0.10;99.90
21316;DHT22;10817;55.820;13.030;2024-03-17T05:18:18;1.30;99.90
21316;DHT22;10817;55.820;13.030;2024-03-17T05:20:46;1.30;99.90
21316;DHT22;10817;55.820;13.030;2024-03-17T05:23:13;1.20;99.90
21316;DHT22;10817;55.820;13.030;2024-03-17T05:25:40;1.20;99.90
21316;DHT22;10817;55.820;13.030;2024-03-17T05:28:07;1.20;99.90
21316;DHT22;10817;55.820;13.030;2024-03-17T05:30:37;1.10;99.90
21316;DHT22;10817;55.820;13.030;2024-03-17T05:33:04;1.20;99.90
21316;DHT22;10817;55.820;13.030;2024-03-17T05:35:31;1.20;99.90
21316;DHT22;10817;55.820;13.030;2024-03-17T05:37:57;1.20;99.90
21316;DHT22;10817;55.820;13.030;2024-03-17T05:40:24;1.20;99.90
21316;DHT22;10817;55.820;13.030;2024-03-17T05:42:51;1.20;99.90
21316;DHT22;10817;55.820;13.030;2024-03-17T05:45:18;1.20;99.90
21316;DHT22;10817;55.820;13.030;2024-03-17T05:47:46;1.20;99.90
21316;DHT22;10817;55.820;13.030;2024-03-17T05:50:13;1.10;99.90
21316;DHT22;10817;55.820;13.030;2024-03-17T05:52:40;1.10;99.90
21316;DHT22;10817;55.820;13.030;2024-03-17T05:55:07;1.20;99.90
21316;DHT22;10817;55.820;13.030;2024-03-17T05:57:37;1.20;99.90
21316;DHT22;10817;55.820;13.030;2024-03-17T06:00:04;1.20;99.90
21316;DHT22;10817;55.820;13.030;2024-03-17T06:02:37;1.20;99.90
21316;DHT22;10817;55.820;13.030;2024-03-17T06:05:06;1.20;99.90
21316;DHT22;10817;55.820;13.030;2024-03-17T06:07:35;1.20;99.90
21316;DHT22;10817;55.820;13.030;2024-03-17T06:10:02;1.20;99.90
21316;DHT22;10817;55.820;13.030;2024-03-17T06:12:29;1.20;99.90
21316;DHT22;10817;55.820;13.030;2024-03-17T06:14:56;1.20;99.90
21316;DHT22;10817;55.820;13.030;2024-03-17T06:17:23;1.20;99.90
21316;DHT22;10817;55.820;13.030;2024-03-17T06:19:50;1.30;99.90
21316;DHT22;10817;55.820;13.030;2024-03-17T06:22:18;1.30;99.90
21316;DHT22;10817;55.820;13.030;2024-03-17T06:24:45;1.30;99.90
21316;DHT22;10817;55.820;13.030;2024-03-17T06:27:12;1.30;99.90
21316;DHT22;10817;55.820;13.030;2024-03-17T06:29:40;1.30;99.90
21316;DHT22;10817;55.820;13.030;2024-03-17T06:32:08;1.30;99.90
21316;DHT22;10817;55.820;13.030;2024-03-17T06:34:35;1.30;99.90
21316;DHT22;10817;55.820;13.030;2024-03-17T06:37:01;1.20;99.90
21316;DHT22;10817;55.820;13.030;2024-03-17T06:39:29;1.20;99.90
21316;DHT22;10817;55.820;13.030;2024-03-17T06:41:56;1.30;99.90
21316;DHT22;10817;55.820;13.030;2024-03-17T06:44:23;1.30;99.90
21316;DHT22;10817;55.820;13.030;2024-03-17T06:46:53;1.40;99.90
21316;DHT22;10817;55.820;13.030;2024-03-17T06:49:19;1.60;99.90
21316;DHT22;10817;55.820;13.030;2024-03-17T06:51:46;1.40;99.90
21316;DHT22;10817;55.820;13.030;2024-03-17T06:54:13;1.40;99.90
21316;DHT22;10817;55.820;13.030;2024-03-17T06:56:42;1.50;99.90
21316;DHT22;10817;55.820;13.030;2024-03-17T06:59:09;1.50;99.90
21316;DHT22;10817;55.820;13.030;2024-03-17T07:01:35;1.50;99.90
21316;DHT22;10817;55.820;13.030;2024-03-17T07:04:02;1.50;99.90
21316;DHT22;10817;55.820;13.030;2024-03-17T07:06:29;2.50;99.90
21316;DHT22;10817;55.820;13.030;2024-03-17T07:08:56;1.60;99.90
21316;DHT22;10817;55.820;13.030;2024-03-17T07:11:23;1.70;99.90
21316;DHT22;10817;55.820;13.030;2024-03-17T07:13:51;1.80;99.90
21316;DHT22;10817;55.820;13.030;2024-03-17T07:16:18;1.80;99.90
21316;DHT22;10817;55.820;13.030;2024-03-17T07:18:46;1.90;99.90
21316;DHT22;10817;55.820;13.030;2024-03-17T07:21:15;1.90;99.90
21316;DHT22;10817;55.820;13.030;2024-03-17T07:23:43;1.80;99.90
21316;DHT22;10817;55.820;13.030;2024-03-17T07:26:10;1.80;99.90
21316;DHT22;10817;55.820;13.030;2024-03-17T07:28:37;1.80;99.90
21316;DHT22;10817;55.820;13.030;2024-03-17T07:31:08;1.70;99.90
21316;DHT22;10817;55.820;13.030;2024-03-17T07:33:36;1.70;99.90
21316;DHT22;10817;55.820;13.030;2024-03-17T07:36:03;1.60;99.90
21316;DHT22;10817;55.820;13.030;2024-03-17T07:38:31;1.50;99.90
21316;DHT22;10817;55.820;13.030;2024-03-17T07:41:02;1.60;99.90
21316;DHT22;10817;55.820;13.030;2024-03-17T07:43:31;1.60;99.90
21316;DHT22;10817;55.820;13.030;2024-03-17T07:45:59;1.30;99.90
21316;DHT22;10817;55.820;13.030;2024-03-17T07:48:28;1.20;99.90
21316;DHT22;10817;55.820;13.030;2024-03-17T07:50:56;1.30;99.90
21316;DHT22;10817;55.820;13.030;2024-03-17T07:53:22;1.40;99.90
21316;DHT22;10817;55.820;13.030;2024-03-17T07:55:57;1.50;99.90
21316;DHT22;10817;55.820;13.030;2024-03-17T07:58:25;1.70;99.90
21316;DHT22;10817;55.820;13.030;2024-03-17T08:00:52;1.80;99.90
21316;DHT22;10817;55.820;13.030;2024-03-17T08:03:19;1.90;99.90
21316;DHT22;10817;55.820;13.030;2024-03-17T08:05:49;2.00;99.90
21316;DHT22;10817;55.820;13.030;2024-03-17T08:08:17;2.10;99.90
21316;DHT22;10817;55.820;13.030;2024-03-17T08:10:43;2.10;99.90
21316;DHT22;10817;55.820;13.030;2024-03-17T08:13:10;2.10;99.90
21316;DHT22;10817;55.820;13.030;2024-03-17T08:15:41;2.20;99.90
21316;DHT22;10817;55.820;13.030;2024-03-17T08:18:08;2.40;99.90
21316;DHT22;10817;55.820;13.030;2024-03-17T08:20:36;2.50;99.90
21316;DHT22;10817;55.820;13.030;2024-03-17T08:23:05;2.60;99.90
21316;DHT22;10817;55.820;13.030;2024-03-17T08:25:32;2.60;99.90
21316;DHT22;10817;55.820;13.030;2024-03-17T08:27:59;2.70;99.90
21316;DHT22;10817;55.820;13.030;2024-03-17T08:30:26;2.60;99.90
21316;DHT22;10817;55.820;13.030;2024-03-17T08:32:53;2.60;99.90
21316;DHT22;10817;55.820;13.030;2024-03-17T08:35:20;2.70;99.90
21316;DHT22;10817;55.820;13.030;2024-03-17T08:37:46;2.70;99.90
21316;DHT22;10817;55.820;13.030;2024-03-17T08:40:15;2.80;99.90
21316;DHT22;10817;55.820;13.030;2024-03-17T08:42:41;3.40;99.90
21316;DHT22;10817;55.820;13.030;2024-03-17T08:45:10;2.90;99.90
21316;DHT22;10817;55.820;13.030;2024-03-17T08:47:37;3.00;99.90
21316;DHT22;10817;55.820;13.030;2024-03-17T08:50:05;3.10;99.90
21316;DHT22;10817;55.820;13.030;2024-03-17T08:52:33;3.30;99.90
21316;DHT22;10817;55.820;13.030;2024-03-17T08:55:00;3.40;99.90
21316;DHT22;10817;55.820;13.030;2024-03-17T08:57:30;3.50;99.90
21316;DHT22;10817;55.820;13.030;2024-03-17T08:59:57;3.30;99.90
21316;DHT22;10817;55.820;13.030;2024-03-17T09:02:23;3.60;99.90
21316;DHT22;10817;55.820;13.030;2024-03-17T09:04:50;3.70;99.90
21316;DHT22;10817;55.820;13.030;2024-03-17T09:07:17;4.60;99.90
21316;DHT22;10817;55.820;13.030;2024-03-17T09:09:46;4.10;99.90
21316;DHT22;10817;55.820;13.030;2024-03-17T09:12:13;4.40;99.90
21316;DHT22;10817;55.820;13.030;2024-03-17T09:14:41;4.40;99.90
21316;DHT22;10817;55.820;13.030;2024-03-17T09:17:09;4.30;99.90
21316;DHT22;10817;55.820;13.030;2024-03-17T09:19:36;3.20;99.90
21316;DHT22;10817;55.820;13.030;2024-03-17T09:22:03;4.50;99.90
21316;DHT22;10817;55.820;13.030;2024-03-17T09:24:30;4.60;99.90
21316;DHT22;10817;55.820;13.030;2024-03-17T09:26:57;4.70;99.90
21316;DHT22;10817;55.820;13.030;2024-03-17T09:29:24;5.20;99.90
21316;DHT22;10817;55.820;13.030;2024-03-17T09:31:52;6.70;99.90
21316;DHT22;10817;55.820;13.030;2024-03-17T09:34:19;8.00;99.90
21316;DHT22;10817;55.820;13.030;2024-03-17T09:36:45;9.10;1.00
21316;DHT22;10817;55.820;13.030;2024-03-17T09:39:13;10.30;99.90
21316;DHT22;10817;55.820;13.030;2024-03-17T09:41:40;10.90;99.90
21316;DHT22;10817;55.820;13.030;2024-03-17T09:44:11;11.80;99.90
21316;DHT22;10817;55.820;13.030;2024-03-17T09:46:39;11.60;99.90
21316;DHT22;10817;55.820;13.030;2024-03-17T09:49:14;11.80;99.90
21316;DHT22;10817;55.820;13.030;2024-03-17T09:51:42;12.70;96.80
21316;DHT22;10817;55.820;13.030;2024-03-17T09:54:16;13.60;1.00
21316;DHT22;10817;55.820;13.030;2024-03-17T09:56:44;13.60;1.00
21316;DHT22;10817;55.820;13.030;2024-03-17T09:59:10;13.60;1.00
21316;DHT22;10817;55.820;13.030;2024-03-17T10:01:37;13.80;1.00
21316;DHT22;10817;55.820;13.030;2024-03-17T10:04:04;14.30;1.00
21316;DHT22;10817;55.820;13.030;2024-03-17T10:06:33;14.20;99.90
21316;DHT22;10817;55.820;13.030;2024-03-17T10:09:15;13.80;1.00
21316;DHT22;10817;55.820;13.030;2024-03-17T10:11:47;14.00;99.90
21316;DHT22;10817;55.820;13.030;2024-03-17T10:14:17;14.30;99.90
21316;DHT22;10817;55.820;13.030;2024-03-17T10:16:44;13.90;99.90
21316;DHT22;10817;55.820;13.030;2024-03-17T10:19:12;14.70;99.90
21316;DHT22;10817;55.820;13.030;2024-03-17T10:21:42;15.00;99.90
21316;DHT22;10817;55.820;13.030;2024-03-17T10:24:09;15.30;99.90
21316;DHT22;10817;55.820;13.030;2024-03-17T10:26:41;15.20;99.90
21316;DHT22;10817;55.820;13.030;2024-03-17T10:29:19;15.50;99.90
21316;DHT22;10817;55.820;13.030;2024-03-17T10:31:47;15.70;60.70
21316;DHT22;10817;55.820;13.030;2024-03-17T10:34:15;16.10;72.60
21316;DHT22;10817;55.820;13.030;2024-03-17T10:36:45;15.70;47.20
21316;DHT22;10817;55.820;13.030;2024-03-17T10:39:23;14.70;17.70
21316;DHT22;10817;55.820;13.030;2024-03-17T10:41:56;14.90;6.80
21316;DHT22;10817;55.820;13.030;2024-03-17T10:44:25;15.30;12.10
21316;DHT22;10817;55.820;13.030;2024-03-17T10:46:54;15.50;11.60
21316;DHT22;10817;55.820;13.030;2024-03-17T10:49:25;16.10;14.60
21316;DHT22;10817;55.820;13.030;2024-03-17T10:51:57;16.80;1.00
21316;DHT22;10817;55.820;13.030;2024-03-17T10:54:25;16.70;1.00
21316;DHT22;10817;55.820;13.030;2024-03-17T10:56:55;16.90;1.00
21316;DHT22;10817;55.820;13.030;2024-03-17T10:59:32;17.20;1.00
21316;DHT22;10817;55.820;13.030;2024-03-17T11:02:02;17.80;1.00
21316;DHT22;10817;55.820;13.030;2024-03-17T11:04:29;17.50;1.00
21316;DHT22;10817;55.820;13.030;2024-03-17T11:06:58;17.40;1.00
21316;DHT22;10817;55.820;13.030;2024-03-17T11:09:26;17.20;1.00
21316;DHT22;10817;55.820;13.030;2024-03-17T11:11:53;17.10;1.00
21316;DHT22;10817;55.820;13.030;2024-03-17T11:14:20;17.00;1.00
21316;DHT22;10817;55.820;13.030;2024-03-17T11:16:48;17.80;1.00
21316;DHT22;10817;55.820;13.030;2024-03-17T11:19:16;17.30;1.00
21316;DHT22;10817;55.820;13.030;2024-03-17T11:21:43;18.00;1.00
21316;DHT22;10817;55.820;13.030;2024-03-17T11:24:20;18.60;1.00
21316;DHT22;10817;55.820;13.030;2024-03-17T11:26:47;19.30;1.00
21316;DHT22;10817;55.820;13.030;2024-03-17T11:29:27;18.20;1.00
21316;DHT22;10817;55.820;13.030;2024-03-17T11:31:55;17.60;1.00
21316;DHT22;10817;55.820;13.030;2024-03-17T11:34:33;18.30;1.00
21316;DHT22;10817;55.820;13.030;2024-03-17T11:37:00;18.60;1.00
21316;DHT22;10817;55.820;13.030;2024-03-17T11:39:54;18.70;1.00
21316;DHT22;10817;55.820;13.030;2024-03-17T11:42:26;18.40;1.00
21316;DHT22;10817;55.820;13.030;2024-03-17T11:45:00;19.10;1.00
21316;DHT22;10817;55.820;13.030;2024-03-17T11:47:35;18.10;1.00
21316;DHT22;10817;55.820;13.030;2024-03-17T11:50:06;17.70;1.00
21316;DHT22;10817;55.820;13.030;2024-03-17T11:52:34;18.10;1.00
21316;DHT22;10817;55.820;13.030;2024-03-17T11:55:01;18.70;1.00
21316;DHT22;10817;55.820;13.030;2024-03-17T11:57:28;19.00;1.00
21316;DHT22;10817;55.820;13.030;2024-03-17T11:59:55;19.00;1.00
21316;DHT22;10817;55.820;13.030;2024-03-17T12:02:25;19.00;1.00
21316;DHT22;10817;55.820;13.030;2024-03-17T12:04:52;18.20;1.00
21316;DHT22;10817;55.820;13.030;2024-03-17T12:07:20;18.10;1.00
21316;DHT22;10817;55.820;13.030;2024-03-17T12:09:47;17.50;1.00
21316;DHT22;10817;55.820;13.030;2024-03-17T12:12:17;17.80;1.00
21316;DHT22;10817;55.820;13.030;2024-03-17T12:14:43;18.20;1.00
21316;DHT22;10817;55.820;13.030;2024-03-17T12:17:12;18.50;1.00
21316;DHT22;10817;55.820;13.030;2024-03-17T12:19:39;18.40;1.00
21316;DHT22;10817;55.820;13.030;2024-03-17T12:22:08;18.50;1.00
21316;DHT22;10817;55.820;13.030;2024-03-17T12:24:36;19.80;1.00
21316;DHT22;10817;55.820;13.030;2024-03-17T12:27:05;19.50;1.00
21316;DHT22;10817;55.820;13.030;2024-03-17T12:29:34;19.20;1.00
21316;DHT22;10817;55.820;13.030;2024-03-17T12:32:04;19.00;1.00
21316;DHT22;10817;55.820;13.030;2024-03-17T12:34:32;19.20;1.00
21316;DHT22;10817;55.820;13.030;2024-03-17T12:37:00;19.10;1.00
21316;DHT22;10817;55.820;13.030;2024-03-17T12:39:28;19.80;1.00
21316;DHT22;10817;55.820;13.030;2024-03-17T12:42:04;19.90;1.00
21316;DHT22;10817;55.820;13.030;2024-03-17T12:44:33;19.90;1.00
21316;DHT22;10817;55.820;13.030;2024-03-17T12:47:01;19.00;1.00
21316;DHT22;10817;55.820;13.030;2024-03-17T12:49:29;18.80;1.00
21316;DHT22;10817;55.820;13.030;2024-03-17T12:51:55;19.70;1.00
21316;DHT22;10817;55.820;13.030;2024-03-17T12:54:24;19.80;1.00
21316;DHT22;10817;55.820;13.030;2024-03-17T12:56:51;20.10;1.00
21316;DHT22;10817;55.820;13.030;2024-03-17T12:59:41;20.30;1.00
21316;DHT22;10817;55.820;13.030;2024-03-17T13:02:26;20.80;1.00
21316;DHT22;10817;55.820;13.030;2024-03-17T13:05:15;20.50;1.00
21316;DHT22;10817;55.820;13.030;2024-03-17T13:07:43;21.60;1.00
21316;DHT22;10817;55.820;13.030;2024-03-17T13:10:13;21.40;1.00
21316;DHT22;10817;55.820;13.030;2024-03-17T13:12:40;21.60;1.00
21316;DHT22;10817;55.820;13.030;2024-03-17T13:15:11;21.30;1.00
21316;DHT22;10817;55.820;13.030;2024-03-17T13:17:38;20.90;1.00
21316;DHT22;10817;55.820;13.030;2024-03-17T13:20:06;20.10;1.00
21316;DHT22;10817;55.820;13.030;2024-03-17T13:22:37;20.20;1.00
21316;DHT22;10817;55.820;13.030;2024-03-17T13:25:08;20.30;1.00
21316;DHT22;10817;55.820;13.030;2024-03-17T13:27:35;20.50;1.00
21316;DHT22;10817;55.820;13.030;2024-03-17T13:30:03;20.70;1.00
21316;DHT22;10817;55.820;13.030;2024-03-17T13:32:35;21.20;1.00
21316;DHT22;10817;55.820;13.030;2024-03-17T13:35:05;20.50;1.00
21316;DHT22;10817;55.820;13.030;2024-03-17T13:37:34;20.70;1.00
21316;DHT22;10817;55.820;13.030;2024-03-17T13:40:01;20.40;1.00
21316;DHT22;10817;55.820;13.030;2024-03-17T13:42:30;19.50;1.00
21316;DHT22;10817;55.820;13.030;2024-03-17T13:44:57;19.10;1.00
21316;DHT22;10817;55.820;13.030;2024-03-17T13:47:24;18.80;1.00
21316;DHT22;10817;55.820;13.030;2024-03-17T13:49:53;19.50;1.00
21316;DHT22;10817;55.820;13.030;2024-03-17T13:52:19;20.60;1.00
21316;DHT22;10817;55.820;13.030;2024-03-17T13:54:47;20.60;1.00
21316;DHT22;10817;55.820;13.030;2024-03-17T13:57:13;20.60;1.00
21316;DHT22;10817;55.820;13.030;2024-03-17T13:59:41;20.70;1.00
21316;DHT22;10817;55.820;13.030;2024-03-17T14:02:12;20.70;1.00
21316;DHT22;10817;55.820;13.030;2024-03-17T14:04:40;21.40;1.00
21316;DHT22;10817;55.820;13.030;2024-03-17T14:07:08;20.60;1.00
21316;DHT22;10817;55.820;13.030;2024-03-17T14:09:34;21.40;1.00
21316;DHT22;10817;55.820;13.030;2024-03-17T14:12:01;19.70;1.00
21316;DHT22;10817;55.820;13.030;2024-03-17T14:14:28;18.90;1.00
21316;DHT22;10817;55.820;13.030;2024-03-17T14:16:55;18.70;1.00
21316;DHT22;10817;55.820;13.030;2024-03-17T14:19:22;18.80;1.00
21316;DHT22;10817;55.820;13.030;2024-03-17T14:21:49;19.30;1.00
21316;DHT22;10817;55.820;13.030;2024-03-17T14:24:17;20.00;1.00
21316;DHT22;10817;55.820;13.030;2024-03-17T14:26:44;19.70;1.00
21316;DHT22;10817;55.820;13.030;2024-03-17T14:29:12;20.00;1.00
21316;DHT22;10817;55.820;13.030;2024-03-17T14:31:38;19.30;1.00
21316;DHT22;10817;55.820;13.030;2024-03-17T14:34:09;18.70;1.00
21316;DHT22;10817;55.820;13.030;2024-03-17T14:36:36;18.60;1.00
21316;DHT22;10817;55.820;13.030;2024-03-17T14:39:03;18.20;1.00
21316;DHT22;10817;55.820;13.030;2024-03-17T14:41:31;17.80;1.00
21316;DHT22;10817;55.820;13.030;2024-03-17T14:43:59;17.70;1.00
21316;DHT22;10817;55.820;13.030;2024-03-17T14:46:26;18.10;1.00
21316;DHT22;10817;55.820;13.030;2024-03-17T14:48:54;18.40;1.00
21316;DHT22;10817;55.820;13.030;2024-03-17T14:51:20;19.30;1.00
21316;DHT22;10817;55.820;13.030;2024-03-17T14:53:48;18.50;1.00
21316;DHT22;10817;55.820;13.030;2024-03-17T14:56:17;18.70;1.00
21316;DHT22;10817;55.820;13.030;2024-03-17T14:58:46;18.30;1.00
21316;DHT22;10817;55.820;13.030;2024-03-17T15:01:13;18.50;1.00
21316;DHT22;10817;55.820;13.030;2024-03-17T15:04:13;19.30;1.00
21316;DHT22;10817;55.820;13.030;2024-03-17T15:07:17;16.90;1.00
21316;DHT22;10817;55.820;13.030;2024-03-17T15:09:48;18.30;1.00
21316;DHT22;10817;55.820;13.030;2024-03-17T15:12:15;16.60;1.00
21316;DHT22;10817;55.820;13.030;2024-03-17T15:14:43;16.60;1.00
21316;DHT22;10817;55.820;13.030;2024-03-17T15:17:14;17.50;1.00
21316;DHT22;10817;55.820;13.030;2024-03-17T15:20:50;17.00;1.00
21316;DHT22;10817;55.820;13.030;2024-03-17T15:23:28;16.30;1.00
21316;DHT22;10817;55.820;13.030;2024-03-17T15:26:08;18.20;1.00
21316;DHT22;10817;55.820;13.030;2024-03-17T15:28:35;16.30;1.00
21316;DHT22;10817;55.820;13.030;2024-03-17T15:31:06;16.70;1.00
21316;DHT22;10817;55.820;13.030;2024-03-17T15:33:33;16.10;1.00
21316;DHT22;10817;55.820;13.030;2024-03-17T15:36:02;15.80;1.00
21316;DHT22;10817;55.820;13.030;2024-03-17T15:38:30;15.90;1.00